Time;durP1;ratioP1;P1;durP2;ratioP2;P2;SDS_P1;SDS_P2;PMS_P1;PMS_P2;Temp;Humidity;BMP_temperature;BMP_pressure;BME280_temperature;BME280_humidity;BME280_pressure;Samples;Min_cycle;Max_cycle;Signal;HPM_P1;HPM_P2
2023/05/18 00:02:15;;;;;;;6.93;3.88;;;11.50;99.90;;;;;;4897526;29;20493;-73
2023/05/18 00:04:41;;;;;;;8.55;4.47;;;11.50;99.90;;;;;;4896900;29;20048;-73
2023/05/18 00:07:08;;;;;;;7.18;4.05;;;11.50;99.90;;;;;;4896998;29;20028;-73
2023/05/18 00:09:35;;;;;;;10.77;3.97;;;11.50;99.90;;;;;;4896538;29;20112;-74
2023/05/18 00:12:02;;;;;;;4.68;3.55;;;11.50;99.90;;;;;;4897163;29;20447;-75
2023/05/18 00:14:29;;;;;;;8.15;3.80;;;11.50;99.90;;;;;;4896864;29;20442;-74
2023/05/18 00:16:55;;;;;;;6.63;4.40;;;11.50;99.90;;;;;;4896313;29;20036;-75
2023/05/18 00:19:22;;;;;;;7.78;4.22;;;11.40;99.90;;;;;;4896419;29;20488;-74
2023/05/18 00:21:50;;;;;;;8.32;4.15;;;11.50;99.90;;;;;;4909428;29;20036;-73
2023/05/18 00:24:16;;;;;;;8.88;3.78;;;11.50;99.90;;;;;;4910974;29;20021;-73
2023/05/18 00:26:45;;;;;;;7.22;4.10;;;11.40;99.90;;;;;;4897460;29;20362;-73
2023/05/18 00:29:11;;;;;;;7.38;4.72;;;11.40;99.90;;;;;;4916560;29;20024;-74
2023/05/18 00:31:38;;;;;;;10.60;4.47;;;11.40;99.90;;;;;;4916039;29;20400;-74
2023/05/18 00:34:09;;;;;;;9.65;4.78;;;11.30;99.90;;;;;;4905400;29;20028;-75
2023/05/18 00:36:36;;;;;;;7.40;4.40;;;11.30;99.90;;;;;;4895384;29;20035;-76
2023/05/18 00:39:03;;;;;;;9.90;4.22;;;11.30;99.90;;;;;;4894560;29;20504;-75
2023/05/18 00:41:30;;;;;;;10.32;4.65;;;11.30;99.90;;;;;;4899813;29;20031;-75
2023/05/18 00:43:56;;;;;;;9.55;4.32;;;11.30;99.90;;;;;;4880107;29;20084;-75
2023/05/18 00:46:24;;;;;;;8.63;4.63;;;11.20;99.90;;;;;;4880952;29;20033;-75
2023/05/18 00:48:52;;;;;;;8.73;4.75;;;11.20;99.90;;;;;;4879342;29;20362;-74
2023/05/18 00:51:19;;;;;;;9.90;4.95;;;11.20;99.90;;;;;;4879568;29;20111;-74
2023/05/18 00:53:46;;;;;;;14.20;4.65;;;11.20;99.90;;;;;;4879311;29;20036;-74
2023/05/18 00:56:13;;;;;;;8.65;4.95;;;11.20;99.90;;;;;;4898955;29;20041;-74
2023/05/18 00:58:41;;;;;;;11.43;5.00;;;11.20;99.90;;;;;;4896165;29;20489;-76
2023/05/18 01:01:10;;;;;;;11.40;4.93;;;11.20;99.90;;;;;;4882745;29;20044;-74
2023/05/18 01:03:37;;;;;;;9.68;5.07;;;11.10;99.90;;;;;;4910989;29;20039;-75
2023/05/18 01:06:08;;;;;;;9.48;5.30;;;11.10;99.90;;;;;;4907576;29;20048;-74
2023/05/18 01:08:35;;;;;;;8.55;4.55;;;11.10;99.90;;;;;;4907339;29;20036;-75
2023/05/18 01:11:29;;;;;;;10.52;5.40;;;11.10;99.90;;;;;;4892177;29;20535;-73
2023/05/18 01:14:17;;;;;;;11.13;6.32;;;11.00;99.90;;;;;;4913881;29;20103;-75
2023/05/18 01:17:09;;;;;;;9.90;4.97;;;11.00;99.90;;;;;;4898536;29;20043;-74
2023/05/18 01:19:48;;;;;;;9.43;5.05;;;11.00;99.90;;;;;;4876620;29;20096;-74
2023/05/18 01:22:32;;;;;;;9.60;4.63;;;10.90;99.90;;;;;;4875947;29;20092;-73
2023/05/18 01:25:28;;;;;;;8.93;4.45;;;10.90;99.90;;;;;;4876352;29;20048;-74
2023/05/18 01:27:56;;;;;;;9.93;4.97;;;10.80;99.90;;;;;;4875956;29;20436;-73
2023/05/18 01:30:23;;;;;;;9.05;5.25;;;10.80;99.90;;;;;;4856359;29;20030;-75
2023/05/18 01:32:48;;;;;;;9.98;4.80;;;10.80;99.90;;;;;;4875329;29;20037;-76
2023/05/18 01:35:14;;;;;;;9.27;5.43;;;10.90;99.90;;;;;;4876436;29;20033;-74
2023/05/18 01:37:40;;;;;;;8.95;5.10;;;10.80;99.90;;;;;;4875502;29;20154;-75
2023/05/18 01:40:08;;;;;;;10.82;4.85;;;10.80;99.90;;;;;;4876527;29;20537;-74
2023/05/18 01:42:41;;;;;;;10.13;5.18;;;10.80;99.90;;;;;;4875680;29;20039;-74
2023/05/18 01:45:11;;;;;;;12.63;5.30;;;10.90;99.90;;;;;;4860579;29;20085;-75
2023/05/18 01:47:38;;;;;;;12.52;5.45;;;10.80;99.90;;;;;;4876201;29;20524;-73
2023/05/18 01:50:07;;;;;;;8.30;4.72;;;10.90;99.90;;;;;;4876129;29;20037;-74
2023/05/18 01:52:59;;;;;;;11.93;5.50;;;10.90;99.90;;;;;;4869940;29;20033;-75
2023/05/18 01:55:29;;;;;;;9.88;5.20;;;10.90;99.90;;;;;;4876988;29;20041;-74
2023/05/18 01:57:59;;;;;;;9.13;5.18;;;10.90;99.90;;;;;;4905094;29;20107;-73
2023/05/18 02:00:25;;;;;;;9.52;4.97;;;10.90;99.90;;;;;;4898619;29;20036;-74
2023/05/18 02:02:51;;;;;;;11.05;5.32;;;10.80;99.90;;;;;;4915559;29;20039;-74
2023/05/18 02:05:17;;;;;;;10.15;5.85;;;10.80;99.90;;;;;;4898635;29;20075;-75
2023/05/18 02:07:46;;;;;;;9.02;4.80;;;10.80;99.90;;;;;;4898376;29;20032;-74
2023/05/18 02:10:12;;;;;;;9.02;5.38;;;10.80;99.90;;;;;;4898636;29;20028;-73
2023/05/18 02:12:38;;;;;;;9.25;4.90;;;10.80;99.90;;;;;;4898970;29;20031;-73
2023/05/18 02:15:05;;;;;;;11.60;4.85;;;10.90;99.90;;;;;;4915479;29;20036;-73
2023/05/18 02:17:37;;;;;;;12.73;5.65;;;10.80;99.90;;;;;;4915553;29;20392;-73
2023/05/18 02:20:08;;;;;;;10.93;4.70;;;10.90;99.90;;;;;;4898314;29;20032;-73
2023/05/18 02:22:34;;;;;;;10.98;5.60;;;10.80;99.90;;;;;;4898710;29;20032;-74
2023/05/18 02:25:01;;;;;;;11.90;5.68;;;10.90;99.90;;;;;;4898054;29;20385;-75
2023/05/18 02:27:27;;;;;;;11.73;5.55;;;10.90;99.90;;;;;;4898519;29;20032;-75
2023/05/18 02:29:53;;;;;;;12.45;5.72;;;10.90;99.90;;;;;;4898278;29;20392;-74
2023/05/18 02:32:19;;;;;;;10.05;4.93;;;10.80;99.90;;;;;;4899652;29;20040;-73
2023/05/18 02:34:45;;;;;;;15.35;6.20;;;10.80;99.90;;;;;;4901864;29;20039;-75
2023/05/18 02:37:12;;;;;;;12.90;5.25;;;10.80;99.90;;;;;;4918609;29;20048;-74
2023/05/18 02:39:39;;;;;;;13.35;6.00;;;10.80;99.90;;;;;;4882911;29;20096;-75
2023/05/18 02:42:05;;;;;;;7.85;4.40;;;10.90;99.90;;;;;;4883074;29;20041;-75
2023/05/18 02:44:31;;;;;;;12.18;5.65;;;10.80;99.90;;;;;;4882943;29;20029;-75
2023/05/18 02:46:56;;;;;;;11.25;5.28;;;10.80;99.90;;;;;;4873000;29;20037;-74
2023/05/18 02:49:22;;;;;;;12.88;5.68;;;10.70;99.90;;;;;;4891941;29;20027;-74
2023/05/18 02:51:48;;;;;;;10.82;5.57;;;10.80;99.90;;;;;;4882570;29;20095;-75
2023/05/18 02:54:14;;;;;;;11.60;5.82;;;10.80;99.90;;;;;;4876343;29;20024;-75
2023/05/18 02:56:42;;;;;;;10.45;5.75;;;10.80;99.90;;;;;;4881314;29;20052;-74
2023/05/18 02:59:22;;;;;;;9.25;5.22;;;10.80;99.90;;;;;;4870706;29;20028;-74
2023/05/18 03:01:48;;;;;;;10.75;5.88;;;10.80;99.90;;;;;;4896025;29;20043;-75
2023/05/18 03:04:15;;;;;;;12.00;5.85;;;10.80;99.90;;;;;;4882470;29;20069;-74
2023/05/18 03:06:51;;;;;;;11.23;6.25;;;10.80;99.90;;;;;;4875321;29;20386;-73
2023/05/18 03:09:18;;;;;;;13.93;6.10;;;10.80;99.90;;;;;;4897241;29;20025;-74
2023/05/18 03:11:44;;;;;;;11.48;5.45;;;10.70;99.90;;;;;;4882027;29;20044;-74
2023/05/18 03:14:11;;;;;;;10.90;5.38;;;10.80;99.90;;;;;;4882512;29;20069;-73
2023/05/18 03:16:37;;;;;;;15.02;6.47;;;10.70;99.90;;;;;;4882156;29;20128;-74
2023/05/18 03:19:08;;;;;;;13.07;6.25;;;10.70;99.90;;;;;;4879698;29;20032;-74
2023/05/18 03:21:37;;;;;;;11.90;5.90;;;10.70;99.90;;;;;;4882108;29;20037;-75
2023/05/18 03:24:04;;;;;;;11.65;5.88;;;10.70;99.90;;;;;;4896042;29;20017;-74
2023/05/18 03:26:32;;;;;;;9.70;5.22;;;10.80;99.90;;;;;;4892146;29;20036;-74
2023/05/18 03:29:00;;;;;;;12.02;6.00;;;10.70;99.90;;;;;;4879382;29;20496;-74
2023/05/18 03:31:26;;;;;;;13.52;5.35;;;10.70;99.90;;;;;;4882225;29;20120;-73
2023/05/18 03:33:53;;;;;;;10.93;5.47;;;10.70;99.90;;;;;;4882066;29;20021;-74
2023/05/18 03:36:21;;;;;;;9.35;5.13;;;10.80;99.90;;;;;;4899060;29;20048;-74
2023/05/18 03:38:47;;;;;;;9.18;4.82;;;10.80;99.90;;;;;;4885078;29;20516;-73
2023/05/18 03:41:14;;;;;;;11.50;5.88;;;10.80;99.90;;;;;;4903433;29;20028;-74
2023/05/18 03:43:40;;;;;;;13.93;6.57;;;10.80;99.90;;;;;;4899467;29;20438;-74
2023/05/18 03:46:06;;;;;;;8.27;5.28;;;10.80;99.90;;;;;;4899373;29;20028;-73
2023/05/18 03:48:32;;;;;;;13.88;5.35;;;10.80;99.90;;;;;;4902536;29;20031;-73
2023/05/18 03:50:58;;;;;;;8.35;5.13;;;10.80;99.90;;;;;;4907372;29;20524;-72
2023/05/18 03:57:21;;;;;;;9.73;5.10;;;10.80;99.90;;;;;;5259269;23;20071;-73
2023/05/18 03:59:47;;;;;;;13.35;5.00;;;10.80;99.90;;;;;;4917990;29;20135;-73
2023/05/18 04:02:15;;;;;;;11.40;5.30;;;10.70;99.90;;;;;;4910445;29;20156;-73
2023/05/18 04:04:44;;;;;;;8.30;4.95;;;10.80;99.90;;;;;;4919034;29;20027;-74
2023/05/18 04:10:50;;;;;;;7.20;4.20;;;10.80;99.90;;;;;;5089276;23;21107;-73
2023/05/18 04:13:17;;;;;;;7.60;4.53;;;10.80;99.90;;;;;;4920511;29;20434;-73
2023/05/18 04:15:43;;;;;;;8.52;4.75;;;10.80;99.90;;;;;;4925842;29;20084;-72
2023/05/18 04:18:09;;;;;;;10.13;4.93;;;10.80;99.90;;;;;;4936986;29;20458;-77
2023/05/18 04:20:36;;;;;;;12.48;4.53;;;10.80;99.90;;;;;;4917989;29;20439;-72
2023/05/18 04:23:04;;;;;;;11.13;5.93;;;10.90;99.90;;;;;;4918877;29;20036;-75
2023/05/18 04:25:30;;;;;;;8.60;4.35;;;10.80;99.90;;;;;;4933296;29;20031;-72
2023/05/18 04:27:56;;;;;;;9.20;4.15;;;10.80;99.90;;;;;;4934618;29;20031;-73
2023/05/18 04:30:25;;;;;;;9.30;5.13;;;10.80;99.90;;;;;;4922225;29;20038;-71
2023/05/18 04:32:53;;;;;;;7.93;4.10;;;10.80;99.90;;;;;;4918044;29;20119;-72
2023/05/18 04:35:19;;;;;;;8.48;4.50;;;10.80;99.90;;;;;;4918473;29;20042;-73
2023/05/18 04:37:45;;;;;;;7.32;4.47;;;10.80;99.90;;;;;;4934908;29;20035;-74
2023/05/18 04:40:16;;;;;;;6.85;4.03;;;10.90;99.90;;;;;;4918253;29;20031;-74
2023/05/18 04:42:46;;;;;;;10.15;4.45;;;10.90;99.90;;;;;;4935108;29;20086;-73
2023/05/18 04:45:15;;;;;;;10.80;4.88;;;10.90;99.90;;;;;;4935022;29;20019;-74
2023/05/18 04:47:45;;;;;;;9.38;4.60;;;11.00;99.90;;;;;;4917765;29;20241;-73
2023/05/18 04:50:16;;;;;;;9.38;4.45;;;11.10;99.90;;;;;;4917740;29;20067;-73
2023/05/18 04:52:49;;;;;;;8.55;3.90;;;11.00;99.90;;;;;;4918144;29;20094;-74
2023/05/18 04:55:27;;;;;;;9.55;4.72;;;11.00;99.90;;;;;;4916901;29;20488;-74
2023/05/18 04:58:01;;;;;;;6.80;4.38;;;11.00;99.90;;;;;;4915156;29;20380;-74
2023/05/18 05:00:28;;;;;;;6.55;3.65;;;11.00;99.90;;;;;;4917873;29;20082;-75
2023/05/18 05:02:55;;;;;;;8.32;4.07;;;11.00;99.90;;;;;;4934995;29;20036;-74
2023/05/18 05:05:22;;;;;;;7.18;3.90;;;11.00;99.90;;;;;;4935393;29;20028;-74
2023/05/18 05:07:53;;;;;;;7.47;4.32;;;11.10;99.90;;;;;;4917640;29;20023;-74
2023/05/18 05:10:19;;;;;;;6.20;4.13;;;11.10;99.90;;;;;;4934705;29;20115;-74
2023/05/18 05:12:45;;;;;;;5.60;3.58;;;11.10;99.90;;;;;;4936387;29;20570;-74
2023/05/18 05:15:11;;;;;;;7.35;4.20;;;11.20;99.90;;;;;;4934786;29;20114;-74
2023/05/18 05:17:37;;;;;;;12.65;5.00;;;11.20;99.90;;;;;;4917726;29;20050;-75
2023/05/18 05:20:07;;;;;;;9.02;4.70;;;11.20;99.90;;;;;;4917709;29;20039;-75
2023/05/18 05:22:33;;;;;;;8.10;4.35;;;11.20;99.90;;;;;;4917379;29;20094;-75
2023/05/18 05:25:00;;;;;;;6.13;3.85;;;11.20;99.90;;;;;;4917923;29;20032;-74
2023/05/18 05:27:26;;;;;;;8.90;4.35;;;11.20;99.90;;;;;;4916679;29;20082;-75
2023/05/18 05:29:52;;;;;;;6.43;3.40;;;11.30;99.90;;;;;;4925795;29;20023;-74
2023/05/18 05:32:18;;;;;;;5.75;3.72;;;11.30;99.90;;;;;;4918068;29;20042;-75
2023/05/18 05:34:46;;;;;;;5.18;3.25;;;11.40;99.90;;;;;;4913213;29;20016;-75
2023/05/18 05:37:14;;;;;;;5.97;3.30;;;11.30;99.90;;;;;;4912451;29;20046;-75
2023/05/18 05:39:40;;;;;;;8.23;4.30;;;11.20;99.90;;;;;;4912844;29;20099;-75
2023/05/18 05:42:07;;;;;;;7.50;4.47;;;11.30;99.90;;;;;;4912888;29;20047;-75
2023/05/18 05:44:34;;;;;;;6.18;4.13;;;11.30;99.90;;;;;;4932115;29;20119;-75
2023/05/18 05:47:00;;;;;;;7.75;4.00;;;11.30;99.90;;;;;;4932129;29;20090;-74
2023/05/18 05:49:26;;;;;;;6.65;3.63;;;11.30;99.90;;;;;;4917764;29;20032;-74
2023/05/18 05:51:52;;;;;;;6.25;3.75;;;11.30;99.90;;;;;;4917348;29;20037;-76
2023/05/18 05:54:18;;;;;;;7.75;3.53;;;11.20;99.90;;;;;;4934572;29;20593;-75
2023/05/18 05:56:44;;;;;;;6.50;3.22;;;11.20;99.90;;;;;;4934341;29;20044;-76
2023/05/18 05:59:11;;;;;;;8.55;4.43;;;11.30;99.90;;;;;;4917681;29;20034;-74
2023/05/18 06:01:37;;;;;;;8.77;4.88;;;11.20;99.90;;;;;;4934469;29;20025;-75
2023/05/18 06:04:05;;;;;;;9.60;4.80;;;11.30;99.90;;;;;;4917550;29;20060;-75
2023/05/18 06:06:31;;;;;;;6.63;4.32;;;11.20;99.90;;;;;;4917692;29;20102;-74
2023/05/18 06:08:57;;;;;;;4.65;3.00;;;11.30;99.90;;;;;;4938108;29;20119;-75
2023/05/18 06:11:23;;;;;;;6.18;3.28;;;11.30;99.90;;;;;;4920732;29;20043;-76
2023/05/18 06:13:51;;;;;;;6.20;3.63;;;11.40;99.90;;;;;;4938220;29;20095;-75
2023/05/18 06:16:17;;;;;;;6.10;3.85;;;11.50;99.90;;;;;;4921039;29;20034;-76
2023/05/18 06:18:43;;;;;;;6.25;3.85;;;11.40;99.90;;;;;;4920799;29;20919;-76
2023/05/18 06:21:09;;;;;;;7.75;3.78;;;11.40;99.90;;;;;;4921005;29;20023;-76
2023/05/18 06:23:35;;;;;;;8.48;4.03;;;11.50;99.90;;;;;;4921056;29;20039;-76
2023/05/18 06:26:01;;;;;;;7.43;4.10;;;11.60;99.90;;;;;;4937718;29;20542;-75
2023/05/18 06:28:36;;;;;;;6.65;4.43;;;11.60;99.90;;;;;;4938067;29;20031;-75
2023/05/18 06:31:28;;;;;;;7.78;4.32;;;11.60;99.90;;;;;;4934875;29;20046;-75
2023/05/18 06:33:58;;;;;;;7.50;3.97;;;11.60;99.90;;;;;;4937726;29;20019;-75
2023/05/18 06:36:24;;;;;;;7.97;4.63;;;11.60;99.90;;;;;;4926840;29;20040;-75
2023/05/18 06:38:50;;;;;;;11.23;4.65;;;11.70;99.90;;;;;;4941714;29;20103;-74
2023/05/18 06:41:16;;;;;;;10.73;5.13;;;11.60;99.90;;;;;;4920872;29;20050;-76
2023/05/18 06:43:42;;;;;;;10.40;5.05;;;11.70;99.90;;;;;;4920404;29;20028;-75
2023/05/18 06:46:25;;;;;;;7.97;4.75;;;11.70;99.90;;;;;;4920763;29;20522;-76
2023/05/18 06:49:00;;;;;;;6.50;4.05;;;11.80;99.90;;;;;;4920675;29;20111;-75
2023/05/18 06:51:26;;;;;;;8.60;5.13;;;11.70;99.90;;;;;;4920323;29;20032;-76
2023/05/18 06:53:54;;;;;;;7.95;4.07;;;11.80;99.90;;;;;;4905076;29;20086;-76
2023/05/18 06:56:21;;;;;;;8.80;4.57;;;11.90;99.90;;;;;;4920080;29;20031;-77
2023/05/18 06:58:47;;;;;;;6.85;4.10;;;11.80;99.90;;;;;;4920226;29;20028;-76
2023/05/18 07:01:14;;;;;;;6.45;4.30;;;12.00;99.90;;;;;;4920076;29;20483;-76
2023/05/18 07:03:40;;;;;;;5.53;3.65;;;11.90;99.90;;;;;;4937673;29;20043;-76
2023/05/18 07:06:06;;;;;;;5.75;3.70;;;12.00;99.90;;;;;;4937339;29;20087;-76
2023/05/18 07:08:32;;;;;;;7.05;3.88;;;12.20;99.90;;;;;;4936955;29;20019;-75
2023/05/18 07:10:58;;;;;;;5.75;4.05;;;12.10;99.90;;;;;;4919866;29;20063;-75
2023/05/18 07:13:24;;;;;;;5.20;3.38;;;12.20;99.90;;;;;;4936967;29;20072;-75
2023/05/18 07:15:50;;;;;;;5.70;3.63;;;12.20;99.90;;;;;;4937227;29;20034;-75
2023/05/18 07:18:16;;;;;;;6.30;3.60;;;12.10;99.90;;;;;;4918564;29;20039;-75
2023/05/18 07:20:42;;;;;;;5.75;3.38;;;12.20;99.90;;;;;;4936943;29;20459;-75
2023/05/18 07:23:08;;;;;;;6.32;3.47;;;12.30;99.90;;;;;;4937133;29;20032;-76
2023/05/18 07:25:34;;;;;;;4.45;2.70;;;12.30;99.90;;;;;;4937247;29;20032;-75
2023/05/18 07:28:00;;;;;;;3.63;2.30;;;12.30;99.90;;;;;;4936937;29;20023;-76
2023/05/18 07:30:26;;;;;;;4.70;3.03;;;12.30;99.90;;;;;;4919868;29;20031;-74
2023/05/18 07:32:51;;;;;;;4.75;2.88;;;12.40;99.90;;;;;;4919710;29;20039;-75
2023/05/18 07:35:19;;;;;;;5.07;3.17;;;12.40;99.90;;;;;;4936872;29;20020;-75
2023/05/18 07:37:45;;;;;;;4.40;2.67;;;12.50;99.90;;;;;;4936806;29;20562;-75
2023/05/18 07:40:11;;;;;;;5.97;2.80;;;12.60;99.90;;;;;;4936498;29;20034;-76
2023/05/18 07:42:42;;;;;;;7.25;3.35;;;12.60;99.90;;;;;;4937022;29;20035;-74
2023/05/18 07:45:08;;;;;;;5.40;3.10;;;12.70;99.90;;;;;;4936557;29;20034;-76
2023/05/18 07:47:34;;;;;;;3.30;2.03;;;12.80;99.90;;;;;;4936742;29;20375;-75
2023/05/18 07:50:00;;;;;;;4.75;2.85;;;12.80;99.90;;;;;;4936233;29;20035;-76
2023/05/18 07:52:26;;;;;;;5.20;3.30;;;12.80;99.90;;;;;;4936717;29;20788;-75
2023/05/18 07:54:54;;;;;;;4.43;2.25;;;12.70;99.90;;;;;;4936330;29;20027;-75
2023/05/18 07:57:20;;;;;;;3.70;2.25;;;12.70;99.90;;;;;;4936403;29;20087;-75
2023/05/18 07:59:45;;;;;;;3.00;2.28;;;12.90;99.90;;;;;;4936529;29;20046;-76
2023/05/18 08:02:11;;;;;;;5.35;3.17;;;12.90;99.90;;;;;;4936075;29;20114;-76
2023/05/18 08:04:37;;;;;;;3.42;2.65;;;12.80;99.90;;;;;;4936483;29;20032;-74
2023/05/18 08:07:03;;;;;;;3.08;2.33;;;12.70;99.90;;;;;;4936200;29;20028;-75
2023/05/18 08:09:30;;;;;;;3.92;2.53;;;12.70;99.90;;;;;;4936112;29;20020;-76
2023/05/18 08:11:56;;;;;;;5.03;2.45;;;12.70;99.90;;;;;;4935661;29;20090;-76
2023/05/18 08:14:22;;;;;;;4.72;2.80;;;12.60;99.90;;;;;;4936579;29;20020;-76
2023/05/18 08:16:48;;;;;;;3.90;2.33;;;12.70;99.90;;;;;;4935808;29;20042;-75
2023/05/18 08:19:14;;;;;;;3.63;2.58;;;12.70;99.90;;;;;;4936012;29;20031;-74
2023/05/18 08:21:40;;;;;;;3.38;2.15;;;12.70;99.90;;;;;;4936073;29;20525;-74
2023/05/18 08:24:06;;;;;;;4.70;2.60;;;12.70;99.90;;;;;;4935551;29;20024;-75
2023/05/18 08:26:32;;;;;;;4.07;2.58;;;12.80;99.90;;;;;;4935995;29;20028;-75
2023/05/18 08:28:58;;;;;;;3.95;2.00;;;12.80;99.90;;;;;;4935639;29;20083;-73
2023/05/18 08:31:23;;;;;;;4.35;2.72;;;12.70;99.90;;;;;;4935644;29;20079;-75
2023/05/18 08:33:49;;;;;;;3.10;2.25;;;12.80;99.90;;;;;;4935465;29;20054;-74
2023/05/18 08:36:16;;;;;;;4.57;2.40;;;12.80;99.90;;;;;;4935860;29;20118;-74
2023/05/18 08:38:42;;;;;;;3.80;2.38;;;12.90;99.90;;;;;;4935378;29;20031;-76
2023/05/18 08:41:27;;;;;;;2.65;1.95;;;12.90;99.90;;;;;;4935923;29;20042;-74
2023/05/18 08:44:00;;;;;;;3.03;2.17;;;12.90;99.90;;;;;;4936039;29;20082;-74
2023/05/18 08:46:32;;;;;;;4.03;2.40;;;12.90;99.90;;;;;;4935382;29;20369;-76
2023/05/18 08:48:59;;;;;;;2.85;2.25;;;13.00;99.90;;;;;;4935673;29;20107;-74
2023/05/18 08:51:28;;;;;;;5.20;3.22;;;13.00;99.90;;;;;;4935228;29;20028;-74
2023/05/18 08:53:54;;;;;;;4.07;2.53;;;13.30;99.90;;;;;;4935535;29;20063;-73
2023/05/18 08:56:25;;;;;;;3.33;2.00;;;13.10;99.90;;;;;;4934922;29;20075;-74
2023/05/18 08:58:55;;;;;;;4.72;2.60;;;13.10;99.90;;;;;;4935284;29;20031;-73
2023/05/18 09:01:26;;;;;;;3.78;2.70;;;13.10;99.90;;;;;;4902565;29;20036;-73
2023/05/18 09:03:54;;;;;;;4.22;2.38;;;13.20;99.90;;;;;;4935137;29;20062;-74
2023/05/18 09:06:23;;;;;;;3.15;2.05;;;13.20;99.90;;;;;;4918208;29;20027;-76
2023/05/18 09:08:52;;;;;;;2.97;1.80;;;13.20;99.90;;;;;;4935047;29;20032;-75
2023/05/18 09:11:18;;;;;;;3.50;2.17;;;13.30;99.90;;;;;;4934628;29;20569;-75
2023/05/18 09:13:45;;;;;;;2.40;2.00;;;13.00;99.90;;;;;;4934669;29;20032;-74
2023/05/18 09:16:11;;;;;;;3.65;2.47;;;13.00;99.90;;;;;;4934940;29;20026;-75
2023/05/18 09:18:37;;;;;;;3.78;2.20;;;13.00;99.90;;;;;;4935098;29;20043;-75
2023/05/18 09:21:02;;;;;;;4.25;2.35;;;13.00;99.90;;;;;;4935120;29;20032;-75
2023/05/18 09:23:29;;;;;;;3.22;2.17;;;13.20;99.90;;;;;;4935132;29;20039;-75
2023/05/18 09:25:57;;;;;;;4.10;2.40;;;12.90;99.90;;;;;;4934592;29;20031;-73
2023/05/18 09:28:31;;;;;;;19.67;5.68;;;12.90;99.90;;;;;;4935000;29;20143;-76
2023/05/18 09:30:57;;;;;;;8.52;3.38;;;13.00;99.90;;;;;;4934636;29;20071;-74
2023/05/18 09:33:23;;;;;;;4.35;2.53;;;13.00;99.90;;;;;;4917853;29;20086;-74
2023/05/18 09:35:50;;;;;;;3.92;2.65;;;13.00;99.90;;;;;;4917856;29;20044;-74
2023/05/18 09:38:20;;;;;;;4.38;2.30;;;13.10;99.90;;;;;;4934562;29;20051;-75
2023/05/18 09:40:48;;;;;;;5.80;2.55;;;13.10;99.90;;;;;;4935021;29;20032;-74
2023/05/18 09:43:16;;;;;;;6.03;3.20;;;13.00;99.90;;;;;;4933977;29;20031;-74
2023/05/18 09:45:44;;;;;;;3.60;2.53;;;13.10;99.90;;;;;;4934781;29;20067;-75
2023/05/18 09:48:10;;;;;;;5.70;2.10;;;13.20;99.90;;;;;;4934597;29;20024;-74
2023/05/18 09:50:37;;;;;;;2.83;2.20;;;13.10;99.90;;;;;;4934776;29;20106;-74
2023/05/18 09:53:09;;;;;;;5.13;2.78;;;13.20;99.90;;;;;;4934649;29;20040;-74
2023/05/18 09:55:46;;;;;;;3.45;1.95;;;13.30;99.90;;;;;;4934482;29;20020;-74
2023/05/18 09:58:12;;;;;;;4.03;2.45;;;13.20;99.90;;;;;;4934419;29;20039;-76
2023/05/18 10:00:45;;;;;;;3.65;2.22;;;13.30;99.90;;;;;;4934581;29;20020;-74
2023/05/18 10:03:22;;;;;;;2.70;1.75;;;13.30;99.90;;;;;;4934628;29;20031;-74
2023/05/18 10:05:49;;;;;;;1.83;1.48;;;13.30;99.90;;;;;;4927018;29;20071;-74
2023/05/18 10:08:16;;;;;;;3.60;2.22;;;13.30;99.90;;;;;;4934417;29;20024;-75
2023/05/18 10:10:45;;;;;;;2.65;2.00;;;13.30;99.90;;;;;;4934252;29;20043;-76
2023/05/18 10:13:17;;;;;;;2.00;1.67;;;13.40;99.90;;;;;;4934370;29;20039;-76
2023/05/18 10:15:51;;;;;;;;;;;13.40;99.90;;;;;;4934862;29;20032;-74
2023/05/18 10:18:21;;;;;;;2.53;1.77;;;13.50;99.90;;;;;;4934234;29;19926;-75
2023/05/18 10:20:48;;;;;;;8.05;4.55;;;13.60;99.90;;;;;;4933987;29;20087;-75
2023/05/18 10:23:14;;;;;;;3.38;2.38;;;13.40;99.90;;;;;;4934588;29;20063;-73
2023/05/18 10:25:43;;;;;;;3.83;2.22;;;13.50;99.90;;;;;;4934357;29;20103;-76
2023/05/18 10:28:10;;;;;;;2.65;2.20;;;13.70;99.90;;;;;;4934296;29;20059;-76
2023/05/18 10:30:39;;;;;;;2.88;1.88;;;13.80;99.90;;;;;;4934274;29;20036;-76
2023/05/18 10:33:06;;;;;;;4.53;2.28;;;13.90;99.90;;;;;;4934421;29;20127;-75
2023/05/18 10:35:32;;;;;;;3.25;2.38;;;13.90;99.90;;;;;;4935582;29;20038;-75
2023/05/18 10:37:58;;;;;;;3.40;2.33;;;13.70;99.90;;;;;;4941146;29;20044;-75
2023/05/18 10:40:27;;;;;;;3.60;2.40;;;13.90;99.90;;;;;;4934110;29;20012;-76
2023/05/18 10:42:56;;;;;;;4.68;2.63;;;14.00;99.90;;;;;;4916895;29;20040;-73
2023/05/18 10:45:23;;;;;;;2.00;1.65;;;14.00;99.90;;;;;;4934255;29;20020;-74
2023/05/18 10:47:53;;;;;;;1.90;1.65;;;14.00;99.90;;;;;;4934147;29;20127;-73
2023/05/18 10:50:22;;;;;;;2.67;1.83;;;13.90;99.90;;;;;;4934165;29;20031;-76
2023/05/18 10:52:50;;;;;;;2.47;1.35;;;14.00;99.90;;;;;;4927253;29;20376;-74
2023/05/18 10:55:17;;;;;;;3.47;1.67;;;14.10;99.90;;;;;;4937642;29;20118;-74
2023/05/18 10:57:52;;;;;;;2.63;1.80;;;14.10;99.90;;;;;;4937489;29;20094;-75
2023/05/18 11:00:19;;;;;;;3.33;1.48;;;14.20;99.90;;;;;;4937753;29;20027;-74
2023/05/18 11:02:45;;;;;;;2.20;1.48;;;14.10;99.90;;;;;;4937596;29;20023;-76
2023/05/18 11:05:11;;;;;;;2.55;1.73;;;14.10;99.90;;;;;;4937240;29;20028;-74
2023/05/18 11:07:37;;;;;;;1.95;1.15;;;14.30;99.90;;;;;;4937353;29;20114;-73
2023/05/18 11:10:09;;;;;;;3.22;1.58;;;14.30;99.90;;;;;;4937271;29;20384;-73
2023/05/18 11:12:37;;;;;;;4.32;2.28;;;14.30;99.90;;;;;;4937178;29;20056;-76
2023/05/18 11:15:04;;;;;;;3.50;2.00;;;14.10;99.90;;;;;;4937334;29;20088;-75
2023/05/18 11:17:30;;;;;;;2.25;1.67;;;14.10;99.90;;;;;;4936823;29;20054;-76
2023/05/18 11:20:06;;;;;;;3.00;1.45;;;14.20;99.90;;;;;;4937153;29;20020;-76
2023/05/18 11:23:00;;;;;;;1.45;1.10;;;14.00;99.90;;;;;;4919892;29;20050;-76
2023/05/18 11:25:32;;;;;;;2.78;1.67;;;14.00;99.90;;;;;;4937164;29;20051;-75
2023/05/18 11:28:09;;;;;;;;;;;14.00;99.90;;;;;;4937423;29;20046;-75
2023/05/18 11:30:40;;;;;;;1.23;1.10;;;14.00;99.90;;;;;;4936729;29;19914;-75
2023/05/18 11:33:10;;;;;;;2.58;1.65;;;13.90;99.90;;;;;;4919820;29;20075;-75
2023/05/18 11:35:55;;;;;;;2.08;1.70;;;14.10;99.90;;;;;;4936902;29;20023;-75
2023/05/18 11:38:22;;;;;;;1.73;1.25;;;14.10;99.90;;;;;;4936549;29;20032;-75
2023/05/18 11:40:49;;;;;;;3.75;1.70;;;14.10;99.90;;;;;;4936811;29;20063;-75
2023/05/18 11:43:24;;;;;;;3.50;1.88;;;14.20;99.90;;;;;;4936425;29;20157;-75
2023/05/18 11:45:57;;;;;;;2.28;1.63;;;14.20;99.90;;;;;;4936532;29;20384;-75
2023/05/18 11:48:25;;;;;;;2.85;1.83;;;14.10;99.90;;;;;;4919471;29;20069;-76
2023/05/18 11:50:54;;;;;;;3.85;2.08;;;14.10;99.90;;;;;;4936456;29;20024;-75
2023/05/18 11:53:25;;;;;;;3.72;1.98;;;14.10;99.90;;;;;;4936294;29;20395;-75
2023/05/18 11:55:55;;;;;;;2.55;1.85;;;14.10;99.90;;;;;;4936374;29;20028;-75
2023/05/18 11:58:25;;;;;;;3.97;2.35;;;14.20;99.90;;;;;;4919348;29;20230;-74
2023/05/18 12:00:51;;;;;;;3.92;2.33;;;14.30;99.90;;;;;;4936537;29;20476;-74
2023/05/18 12:03:22;;;;;;;3.47;2.35;;;14.20;99.90;;;;;;4936313;29;20027;-74
2023/05/18 12:05:49;;;;;;;4.68;2.50;;;14.10;99.90;;;;;;4935802;29;20498;-75
2023/05/18 12:08:19;;;;;;;3.35;2.10;;;14.10;99.90;;;;;;4935949;29;20051;-74
2023/05/18 12:10:46;;;;;;;4.90;1.90;;;14.00;99.90;;;;;;4936190;29;20055;-75
2023/05/18 12:13:15;;;;;;;3.78;1.90;;;14.00;99.90;;;;;;4935949;29;20364;-76
2023/05/18 12:15:41;;;;;;;2.95;1.67;;;14.00;99.90;;;;;;4935802;29;20031;-75
2023/05/18 12:18:07;;;;;;;2.95;1.90;;;13.90;99.90;;;;;;4936178;29;20043;-75
2023/05/18 12:20:34;;;;;;;3.03;1.88;;;14.10;99.90;;;;;;4936164;29;20023;-75
2023/05/18 12:23:01;;;;;;;1.77;1.38;;;14.00;99.90;;;;;;4918757;29;20056;-76
2023/05/18 12:25:27;;;;;;;1.75;1.60;;;14.00;99.90;;;;;;4935938;29;20036;-75
2023/05/18 12:27:54;;;;;;;3.58;1.85;;;14.00;99.90;;;;;;4935767;29;20040;-75
2023/05/18 12:30:21;;;;;;;2.95;1.75;;;14.20;99.90;;;;;;4935672;29;20028;-75
2023/05/18 12:32:48;;;;;;;1.88;1.67;;;14.10;99.90;;;;;;4935957;29;20023;-75
2023/05/18 12:35:14;;;;;;;2.25;1.77;;;14.20;99.90;;;;;;4935619;29;20063;-76
2023/05/18 12:37:44;;;;;;;3.30;2.05;;;14.30;99.90;;;;;;4935508;29;20070;-74
2023/05/18 12:40:12;;;;;;;2.28;1.45;;;14.30;99.90;;;;;;4935530;29;20032;-75
2023/05/18 12:42:37;;;;;;;3.63;1.77;;;14.50;99.90;;;;;;4918027;29;20035;-74
2023/05/18 12:45:04;;;;;;;2.95;2.10;;;14.50;99.90;;;;;;4935701;29;20032;-76
2023/05/18 12:47:32;;;;;;;3.10;2.35;;;14.40;99.90;;;;;;4935440;29;20024;-74
2023/05/18 12:50:02;;;;;;;2.65;1.90;;;14.40;99.90;;;;;;4918440;29;20039;-74
2023/05/18 12:52:28;;;;;;;3.90;2.45;;;14.20;99.90;;;;;;4935515;29;20028;-75
2023/05/18 12:54:57;;;;;;;3.75;2.30;;;14.20;99.90;;;;;;4935415;29;20487;-74
2023/05/18 12:57:26;;;;;;;3.47;2.53;;;14.20;99.90;;;;;;4935150;29;20040;-74
2023/05/18 13:00:09;;;;;;;4.10;2.75;;;14.40;99.90;;;;;;4935140;29;20042;-75